createdAt,value
2023-04-05T00:02:18.975Z,22.10
2023-04-05T00:04:57.458Z,24.38
2023-04-05T00:07:24.909Z,25.55
2023-04-05T00:09:51.843Z,24.17
2023-04-05T00:12:18.796Z,25.48
2023-04-05T00:14:46.220Z,24.98
2023-04-05T00:17:13.337Z,25.65
2023-04-05T00:19:40.250Z,24.92
2023-04-05T00:22:10.996Z,25.50
2023-04-05T00:24:43.543Z,25.08
2023-04-05T00:27:10.675Z,24.75
2023-04-05T00:29:37.856Z,24.85
2023-04-05T00:32:05.490Z,24.40
2023-04-05T00:34:33.803Z,25.70
2023-04-05T00:37:01.058Z,24.90
2023-04-05T00:39:28.010Z,25.58
2023-04-05T00:41:56.040Z,26.05
2023-04-05T00:44:22.995Z,25.77
2023-04-05T00:46:50.052Z,27.85
2023-04-05T00:49:17.694Z,27.83
2023-04-05T00:51:45.114Z,28.58
2023-04-05T00:54:13.041Z,29.48
2023-04-05T00:56:41.020Z,29.15
2023-04-05T00:59:08.144Z,29.08
2023-04-05T01:01:38.358Z,27.88
2023-04-05T01:04:07.450Z,28.58
2023-04-05T01:06:40.769Z,31.27
2023-04-05T01:09:35.294Z,30.70
2023-04-05T01:12:09.507Z,29.92
2023-04-05T01:14:46.606Z,30.00
2023-04-05T01:17:13.702Z,30.25
2023-04-05T01:19:42.125Z,28.98
2023-04-05T01:22:37.981Z,28.98
2023-04-05T01:25:39.069Z,30.33
2023-04-05T01:28:38.716Z,30.92
2023-04-05T01:31:27.399Z,30.73
2023-04-05T01:34:08.614Z,32.47
2023-04-05T01:36:48.281Z,34.83
2023-04-05T01:39:20.246Z,34.42
2023-04-05T01:41:47.479Z,34.17
2023-04-05T01:44:14.969Z,33.28
2023-04-05T01:46:42.319Z,34.78
2023-04-05T01:49:09.292Z,34.05
2023-04-05T01:51:36.429Z,35.67
2023-04-05T01:54:03.373Z,35.45
2023-04-05T01:56:30.259Z,35.30
2023-04-05T01:58:57.150Z,35.47
2023-04-05T02:01:24.778Z,35.70
2023-04-05T02:03:51.936Z,36.22
2023-04-05T02:06:19.087Z,35.60
2023-04-05T02:08:45.957Z,37.17
2023-04-05T02:11:12.856Z,36.35
2023-04-05T02:13:39.672Z,37.03
2023-04-05T02:16:06.894Z,37.88
2023-04-05T02:18:33.696Z,36.58
2023-04-05T02:21:05.320Z,38.30
2023-04-05T02:23:33.062Z,39.08
2023-04-05T02:26:00.312Z,39.90
2023-04-05T02:28:27.314Z,39.88
2023-04-05T02:30:54.481Z,42.72
2023-04-05T02:33:22.872Z,41.97
2023-04-05T02:35:51.682Z,41.95
2023-04-05T02:38:19.070Z,41.75
2023-04-05T02:40:49.455Z,41.40
2023-04-05T02:43:16.623Z,40.65
2023-04-05T02:45:45.543Z,41.22
2023-04-05T02:48:14.350Z,42.03
2023-04-05T02:50:41.851Z,43.22
2023-04-05T02:53:09.228Z,43.78
2023-04-05T02:55:36.108Z,42.22
2023-04-05T02:58:03.086Z,43.85
2023-04-05T03:00:36.766Z,41.38
2023-04-05T03:03:04.297Z,41.72
2023-04-05T03:05:32.162Z,41.70
2023-04-05T03:07:59.613Z,43.05
2023-04-05T03:10:34.851Z,43.35
2023-04-05T03:13:10.366Z,44.35
2023-04-05T03:15:38.672Z,43.83
2023-04-05T03:18:11.377Z,46.20
2023-04-05T03:20:40.470Z,49.00
2023-04-05T03:23:15.085Z,51.03
2023-04-05T03:25:43.008Z,52.50
2023-04-05T03:28:10.398Z,51.10
2023-04-05T03:30:41.714Z,52.65
2023-04-05T03:35:47.359Z,48.70
2023-04-05T03:38:15.832Z,50.00
2023-04-05T03:40:52.552Z,49.00
2023-04-05T03:43:19.521Z,51.17
2023-04-05T03:45:47.415Z,49.25
2023-04-05T03:48:14.376Z,49.53
2023-04-05T03:50:41.606Z,52.10
2023-04-05T03:53:08.476Z,51.85
2023-04-05T03:55:35.957Z,52.25
2023-04-05T03:58:06.294Z,53.05
2023-04-05T04:00:36.049Z,50.88
2023-04-05T04:03:30.810Z,51.60
2023-04-05T04:05:58.098Z,52.15
2023-04-05T04:08:25.110Z,51.63
2023-04-05T04:10:52.251Z,50.28
2023-04-05T04:13:23.208Z,52.92
2023-04-05T04:15:59.065Z,51.13
2023-04-05T04:18:55.838Z,52.65
2023-04-05T04:21:45.937Z,54.47
2023-04-05T04:24:22.954Z,55.00
2023-04-05T04:27:06.861Z,53.60
2023-04-05T04:30:15.208Z,54.63
2023-04-05T04:33:09.381Z,52.38
2023-04-05T04:35:39.085Z,49.20
2023-04-05T04:38:26.085Z,50.08
2023-04-05T04:41:20.319Z,50.65
2023-04-05T04:44:06.120Z,51.60
2023-04-05T04:46:54.827Z,54.50
2023-04-05T04:49:45.397Z,53.83
2023-04-05T04:52:12.289Z,52.45
2023-04-05T04:54:42.550Z,55.05
2023-04-05T04:57:09.558Z,54.97
2023-04-05T04:59:36.589Z,53.58
2023-04-05T05:02:05.644Z,51.40
2023-04-05T05:04:34.397Z,55.45
2023-04-05T05:07:01.528Z,54.60
2023-04-05T05:09:28.360Z,54.40
2023-04-05T05:11:59.504Z,51.72
2023-04-05T05:14:26.451Z,53.80
2023-04-05T05:16:54.718Z,50.85
2023-04-05T05:19:21.921Z,52.75
2023-04-05T05:21:54.131Z,53.10
2023-04-05T05:24:21.350Z,51.95
2023-04-05T05:26:48.256Z,53.92
2023-04-05T05:29:19.884Z,56.40
2023-04-05T05:31:47.332Z,54.10
2023-04-05T05:34:14.185Z,55.88
2023-04-05T05:36:47.617Z,54.30
2023-04-05T05:39:14.564Z,55.95
2023-04-05T05:41:41.392Z,56.45
2023-04-05T05:44:08.394Z,58.80
2023-04-05T05:46:35.347Z,54.83
2023-04-05T05:49:02.404Z,57.35
2023-04-05T05:51:29.322Z,57.03
2023-04-05T05:53:56.221Z,56.47
2023-04-05T05:56:23.026Z,57.53
2023-04-05T05:58:50.065Z,56.72
2023-04-05T06:01:17.067Z,57.47
2023-04-05T06:03:43.980Z,57.85
2023-04-05T06:06:11.379Z,57.60
2023-04-05T06:08:38.611Z,57.85
2023-04-05T06:11:05.556Z,63.00
2023-04-05T06:13:32.516Z,64.00
2023-04-05T06:16:01.490Z,58.63
2023-04-05T06:18:28.430Z,63.45
2023-04-05T06:20:56.095Z,59.85
2023-04-05T06:23:22.992Z,60.53
2023-04-05T06:25:49.895Z,59.55
2023-04-05T06:28:16.929Z,60.85
2023-04-05T06:30:43.735Z,58.20
2023-04-05T06:33:10.639Z,57.33
2023-04-05T06:35:37.597Z,55.65
2023-04-05T06:38:04.486Z,53.97
2023-04-05T06:40:31.276Z,54.28
2023-04-05T06:42:58.303Z,55.00
2023-04-05T06:45:29.131Z,53.00
2023-04-05T06:47:56.149Z,52.22
2023-04-05T06:50:23.040Z,51.75
2023-04-05T06:52:50.205Z,50.17
2023-04-05T06:55:17.106Z,47.63
2023-04-05T06:57:44.022Z,46.05
2023-04-05T07:00:13.184Z,46.33
2023-04-05T07:02:40.167Z,44.72
2023-04-05T07:05:07.309Z,42.42
2023-04-05T07:07:34.625Z,41.38
2023-04-05T07:10:01.878Z,39.97
2023-04-05T07:12:28.819Z,39.45
2023-04-05T07:14:55.798Z,36.72
2023-04-05T07:17:22.796Z,36.15
2023-04-05T07:19:49.683Z,34.95
2023-04-05T07:22:16.595Z,34.35
2023-04-05T07:24:45.392Z,33.42
2023-04-05T07:27:12.651Z,32.30
2023-04-05T07:29:43.105Z,32.78
2023-04-05T07:32:10.607Z,32.45
2023-04-05T07:34:37.686Z,32.35
2023-04-05T07:37:06.476Z,32.72
2023-04-05T07:39:33.716Z,31.13
2023-04-05T07:42:00.762Z,29.98
2023-04-05T07:44:27.602Z,31.67
2023-04-05T07:46:54.629Z,29.15
2023-04-05T07:49:26.113Z,28.58
2023-04-05T07:51:57.647Z,26.17
2023-04-05T07:54:24.664Z,26.33
2023-04-05T07:56:52.987Z,24.80
2023-04-05T07:59:19.967Z,26.10
2023-04-05T08:01:46.815Z,27.73
2023-04-05T08:04:13.832Z,26.83
2023-04-05T08:06:40.966Z,24.52
2023-04-05T08:09:09.125Z,23.73
2023-04-05T08:11:36.083Z,21.67
2023-04-05T08:14:03.104Z,21.42
2023-04-05T08:16:30.074Z,22.20
2023-04-05T08:18:57.121Z,21.85
2023-04-05T08:21:23.920Z,21.20
2023-04-05T08:23:50.857Z,20.08
2023-04-05T08:26:17.997Z,17.20
2023-04-05T08:28:44.930Z,16.33
2023-04-05T08:31:18.766Z,15.98
2023-04-05T08:33:45.756Z,15.50
2023-04-05T08:36:12.718Z,15.68
2023-04-05T08:38:39.630Z,15.07
2023-04-05T08:41:14.285Z,16.92
2023-04-05T08:44:00.106Z,16.45
2023-04-05T08:48:54.133Z,17.00
2023-04-05T08:51:22.183Z,15.32
2023-04-05T08:53:49.712Z,16.27
2023-04-05T08:56:21.921Z,15.05
2023-04-05T08:59:07.378Z,14.32
2023-04-05T09:01:37.976Z,12.93
2023-04-05T09:04:15.362Z,14.15
2023-04-05T09:06:44.126Z,12.75
2023-04-05T09:09:11.940Z,14.43
2023-04-05T09:11:40.122Z,13.68
2023-04-05T09:14:07.303Z,12.45
2023-04-05T09:16:38.119Z,12.65
2023-04-05T09:19:06.558Z,12.38
2023-04-05T09:22:02.391Z,11.52
2023-04-05T09:24:36.875Z,12.65
2023-04-05T09:27:06.272Z,11.90
2023-04-05T09:29:33.539Z,10.50
2023-04-05T09:32:06.771Z,11.80
2023-04-05T09:34:36.684Z,12.25
2023-04-05T09:37:20.212Z,11.73
2023-04-05T09:39:52.241Z,12.02
2023-04-05T09:42:22.971Z,12.40
2023-04-05T09:44:50.484Z,11.77
2023-04-05T09:47:18.576Z,11.68
2023-04-05T09:49:45.633Z,11.85
2023-04-05T09:52:42.462Z,10.10
2023-04-05T09:55:10.356Z,8.27
2023-04-05T09:57:38.704Z,9.27
2023-04-05T10:00:10.020Z,9.45
2023-04-05T10:02:41.721Z,10.02
2023-04-05T10:05:13.412Z,9.20
2023-04-05T10:07:41.383Z,9.80
2023-04-05T10:10:12.860Z,10.90
2023-04-05T10:12:45.259Z,10.23
2023-04-05T10:15:14.420Z,10.75
2023-04-05T10:17:52.650Z,10.43
2023-04-05T10:20:21.140Z,9.95
2023-04-05T10:23:12.114Z,9.85
2023-04-05T10:26:00.880Z,8.50
2023-04-05T10:28:36.373Z,9.82
2023-04-05T10:31:38.973Z,10.55
2023-04-05T10:34:19.082Z,10.57
2023-04-05T10:36:58.431Z,10.18
2023-04-05T10:39:28.271Z,10.25
2023-04-05T10:41:59.421Z,10.52
2023-04-05T10:44:27.025Z,11.38
2023-04-05T10:46:56.391Z,10.23
2023-04-05T10:49:45.719Z,10.27
2023-04-05T10:52:13.471Z,9.48
2023-04-05T10:54:41.612Z,11.05
2023-04-05T10:57:10.163Z,10.88
2023-04-05T10:59:43.793Z,10.38
2023-04-05T11:02:11.703Z,10.18
2023-04-05T11:04:42.295Z,10.38
2023-04-05T11:07:19.792Z,10.82
2023-04-05T11:09:57.026Z,9.73
2023-04-05T11:12:46.112Z,10.30
2023-04-05T11:15:28.335Z,10.45
2023-04-05T11:18:11.810Z,10.18
2023-04-05T11:20:46.227Z,10.23
2023-04-05T11:23:15.669Z,14.63
2023-04-05T11:25:53.582Z,11.90
2023-04-05T11:28:37.275Z,15.55
2023-04-05T11:31:19.243Z,14.13
2023-04-05T11:33:55.014Z,12.95
2023-04-05T11:36:36.942Z,13.48
2023-04-05T11:39:19.547Z,14.02
2023-04-05T11:41:48.516Z,13.27
2023-04-05T11:44:19.162Z,14.25
2023-04-05T11:46:49.541Z,13.45
2023-04-05T11:49:16.819Z,14.02
2023-04-05T11:51:44.164Z,13.70
2023-04-05T11:54:11.261Z,14.90
2023-04-05T11:56:38.157Z,14.45
2023-04-05T11:59:05.037Z,15.25
2023-04-05T12:01:31.979Z,14.48
2023-04-05T12:03:58.979Z,16.27
2023-04-05T12:06:26.673Z,17.52
2023-04-05T12:08:55.929Z,15.13
2023-04-05T12:11:27.328Z,17.35
2023-04-05T12:13:56.284Z,16.35
2023-04-05T12:16:23.128Z,15.95
2023-04-05T12:18:55.054Z,15.75
2023-04-05T12:21:23.272Z,16.15
2023-04-05T12:23:51.694Z,14.65
2023-04-05T12:26:19.247Z,14.48
2023-04-05T12:28:57.417Z,14.75
2023-04-05T12:31:47.068Z,16.38
2023-04-05T12:34:15.348Z,15.07
2023-04-05T12:36:46.445Z,15.55
2023-04-05T12:39:15.844Z,15.65
2023-04-05T12:41:43.092Z,16.55
2023-04-05T12:44:17.487Z,16.15
2023-04-05T12:46:48.624Z,16.55
2023-04-05T12:49:17.008Z,15.98
2023-04-05T12:51:44.991Z,15.95
2023-04-05T12:54:21.721Z,16.17
2023-04-05T12:56:55.401Z,15.88
2023-04-05T12:59:23.344Z,16.73
2023-04-05T13:01:51.234Z,17.45
2023-04-05T13:04:18.636Z,17.08
2023-04-05T13:06:47.552Z,16.50
2023-04-05T13:09:14.951Z,16.33
2023-04-05T13:11:41.821Z,17.13
2023-04-05T13:14:08.957Z,17.33
2023-04-05T13:16:35.902Z,16.90
2023-04-05T13:19:03.192Z,18.00
2023-04-05T13:21:30.960Z,17.70
2023-04-05T13:23:57.987Z,17.75
2023-04-05T13:26:24.866Z,17.67
2023-04-05T13:28:51.816Z,17.63
2023-04-05T13:31:18.677Z,18.25
2023-04-05T13:33:45.697Z,17.92
2023-04-05T13:36:12.828Z,18.27
2023-04-05T13:38:41.192Z,19.70
2023-04-05T13:41:08.190Z,19.25
2023-04-05T13:43:35.270Z,19.30
2023-04-05T13:46:02.203Z,18.85
2023-04-05T13:48:29.112Z,19.15
2023-04-05T13:50:55.977Z,18.67
2023-04-05T13:53:23.174Z,19.40
2023-04-05T13:55:50.326Z,20.08
2023-04-05T13:58:17.271Z,19.38
2023-04-05T14:00:44.286Z,20.58
2023-04-05T14:03:11.461Z,20.52
2023-04-05T14:05:38.400Z,20.27
2023-04-05T14:08:05.360Z,20.77
2023-04-05T14:10:32.647Z,21.20
2023-04-05T14:12:59.898Z,20.35
2023-04-05T14:15:27.649Z,21.00
2023-04-05T14:17:54.677Z,20.42
2023-04-05T14:20:21.669Z,21.55
2023-04-05T14:22:48.698Z,21.13
2023-04-05T14:25:15.785Z,21.83
2023-04-05T14:27:42.851Z,20.60
2023-04-05T14:30:11.343Z,21.10
2023-04-05T14:32:38.654Z,20.88
2023-04-05T14:35:06.324Z,22.85
2023-04-05T14:37:33.270Z,21.02
2023-04-05T14:40:00.280Z,21.42
2023-04-05T14:42:37.284Z,22.27
2023-04-05T14:45:09.278Z,21.60
2023-04-05T14:47:36.171Z,20.80
2023-04-05T14:50:03.250Z,21.13
2023-04-05T14:52:30.463Z,22.38
2023-04-05T14:54:57.439Z,22.35
2023-04-05T14:57:24.397Z,21.52
2023-04-05T14:59:51.367Z,22.00
2023-04-05T15:02:18.391Z,22.35
2023-04-05T15:04:45.411Z,22.85
2023-04-05T15:07:13.217Z,22.83
2023-04-05T15:09:40.149Z,23.60
2023-04-05T15:12:07.207Z,23.23
2023-04-05T15:14:34.248Z,22.60
2023-04-05T15:17:01.177Z,22.02
2023-04-05T15:19:28.264Z,22.40
2023-04-05T15:21:55.538Z,23.10
2023-04-05T15:24:22.514Z,24.30
2023-04-05T15:26:49.527Z,23.95
2023-04-05T15:29:16.565Z,23.73
2023-04-05T15:31:43.454Z,22.70
2023-04-05T15:34:10.498Z,22.83
2023-04-05T15:36:37.442Z,23.10
2023-04-05T15:39:05.193Z,22.70
2023-04-05T15:41:33.657Z,23.50
2023-04-05T15:44:01.245Z,23.25
2023-04-05T15:46:29.325Z,23.13
2023-04-05T15:48:56.398Z,22.60
2023-04-05T15:51:23.419Z,23.30
2023-04-05T15:53:51.247Z,22.48
2023-04-05T15:56:18.326Z,21.80
2023-04-05T15:58:45.496Z,22.08
2023-04-05T16:01:12.556Z,22.75
2023-04-05T16:03:39.868Z,22.60
2023-04-05T16:06:07.015Z,23.70
2023-04-05T16:08:34.461Z,25.65
2023-04-05T16:11:01.438Z,23.67
2023-04-05T16:13:28.446Z,21.85
2023-04-05T16:15:55.384Z,24.33
2023-04-05T16:18:23.879Z,22.80
2023-04-05T16:20:51.002Z,24.30
2023-04-05T16:23:17.989Z,22.85
2023-04-05T16:25:44.875Z,23.58
2023-04-05T16:28:11.855Z,23.80
2023-04-05T16:30:38.752Z,22.50
2023-04-05T16:33:05.971Z,24.52
2023-04-05T16:35:33.081Z,22.88
2023-04-05T16:38:00.249Z,22.48
2023-04-05T16:40:27.201Z,22.50
2023-04-05T16:42:55.188Z,22.83
2023-04-05T16:45:22.653Z,22.50
2023-04-05T16:47:50.287Z,23.30
2023-04-05T16:50:19.324Z,22.42
2023-04-05T16:52:46.678Z,22.85
2023-04-05T16:55:13.606Z,23.38
2023-04-05T16:57:40.553Z,23.80
2023-04-05T17:00:08.146Z,22.38
2023-04-05T17:02:35.207Z,22.63
2023-04-05T17:05:02.558Z,23.05
2023-04-05T17:07:29.426Z,24.10
2023-04-05T17:09:57.964Z,23.23
2023-04-05T17:12:24.993Z,22.42
2023-04-05T17:14:51.903Z,23.25
2023-04-05T17:17:18.845Z,24.77
2023-04-05T17:19:45.840Z,22.65
2023-04-05T17:22:13.744Z,23.65
2023-04-05T17:24:40.703Z,22.98
2023-04-05T17:27:07.964Z,23.20
2023-04-05T17:29:34.852Z,23.10
2023-04-05T17:32:01.935Z,22.42
2023-04-05T17:34:28.858Z,22.75
2023-04-05T17:36:56.040Z,22.50
2023-04-05T17:39:22.993Z,22.83
2023-04-05T17:41:50.990Z,28.88
2023-04-05T17:44:19.036Z,21.73
2023-04-05T17:46:51.285Z,22.95
2023-04-05T17:49:24.534Z,22.65
2023-04-05T17:51:51.423Z,22.63
2023-04-05T17:54:18.373Z,23.33
2023-04-05T17:56:46.008Z,21.52
2023-04-05T17:59:13.015Z,22.17
2023-04-05T18:01:39.960Z,22.25
2023-04-05T18:04:08.801Z,22.50
2023-04-05T18:06:37.221Z,22.25
2023-04-05T18:09:04.577Z,28.35
2023-04-05T18:11:31.882Z,24.52
2023-04-05T18:13:58.743Z,27.20
2023-04-05T18:16:26.152Z,22.23
2023-04-05T18:18:53.361Z,22.15
2023-04-05T18:21:20.453Z,22.33
2023-04-05T18:23:48.098Z,21.75
2023-04-05T18:26:15.210Z,24.67
2023-04-05T18:28:42.069Z,25.42
2023-04-05T18:31:09.957Z,23.35
2023-04-05T18:33:37.908Z,21.92
2023-04-05T18:36:05.239Z,21.17
2023-04-05T18:38:32.340Z,21.38
2023-04-05T18:41:02.438Z,20.88
2023-04-05T18:43:30.033Z,22.75
2023-04-05T18:45:57.269Z,21.80
2023-04-05T18:48:24.968Z,39.33
2023-04-05T18:50:53.954Z,27.40
2023-04-05T18:53:22.055Z,26.92
2023-04-05T18:55:52.985Z,23.98
2023-04-05T18:58:20.780Z,24.45
2023-04-05T19:00:47.648Z,26.25
2023-04-05T19:03:16.137Z,27.40
2023-04-05T19:05:50.492Z,26.58
2023-04-05T19:08:19.912Z,26.35
2023-04-05T19:10:46.877Z,26.85
2023-04-05T19:13:13.826Z,25.85
2023-04-05T19:15:40.922Z,24.10
2023-04-05T19:18:08.052Z,25.67
2023-04-05T19:20:34.998Z,24.83
2023-04-05T19:23:02.003Z,24.85
2023-04-05T19:25:28.869Z,23.10
2023-04-05T19:27:56.516Z,24.10
2023-04-05T19:30:23.585Z,25.08
2023-04-05T19:32:54.646Z,24.65
2023-04-05T19:35:21.751Z,24.13
2023-04-05T19:37:48.708Z,26.73
2023-04-05T19:40:15.934Z,24.23
2023-04-05T19:42:47.381Z,25.63
2023-04-05T19:45:17.109Z,26.45
2023-04-05T19:47:48.490Z,24.95
2023-04-05T19:50:56.313Z,25.40
2023-04-05T19:53:43.103Z,25.08
2023-04-05T19:56:15.814Z,25.73
2023-04-05T19:58:43.823Z,26.38
2023-04-05T20:01:10.905Z,26.25
2023-04-05T20:03:40.034Z,26.83
2023-04-05T20:06:14.469Z,27.48
2023-04-05T20:08:46.563Z,26.43
2023-04-05T20:11:19.103Z,27.23
2023-04-05T20:13:50.751Z,27.48
2023-04-05T20:16:21.920Z,27.05
2023-04-05T20:18:49.314Z,27.20
2023-04-05T20:21:16.774Z,26.85
2023-04-05T20:23:44.689Z,24.42
2023-04-05T20:26:15.524Z,27.17
2023-04-05T20:28:55.414Z,25.45
2023-04-05T20:31:33.181Z,26.17
2023-04-05T20:34:15.482Z,24.73
2023-04-05T20:36:45.582Z,25.90
2023-04-05T20:39:12.821Z,24.73
2023-04-05T20:41:39.851Z,24.85
2023-04-05T20:44:07.025Z,24.60
2023-04-05T20:46:34.161Z,25.15
2023-04-05T20:49:01.352Z,25.15
2023-04-05T20:51:28.232Z,25.58
2023-04-05T20:53:55.618Z,24.20
2023-04-05T20:56:22.743Z,25.70
2023-04-05T20:58:49.872Z,24.60
2023-04-05T21:01:16.879Z,24.80
2023-04-05T21:03:44.214Z,23.38
2023-04-05T21:06:11.489Z,24.92
2023-04-05T21:08:40.054Z,24.75
2023-04-05T21:11:08.000Z,23.92
2023-04-05T21:13:35.766Z,25.17
2023-04-05T21:16:02.829Z,23.75
2023-04-05T21:18:29.933Z,24.85
2023-04-05T21:20:56.864Z,23.00
2023-04-05T21:23:28.385Z,23.77
2023-04-05T21:25:56.497Z,24.15
2023-04-05T21:28:26.884Z,23.10
2023-04-05T21:30:53.926Z,22.05
2023-04-05T21:33:20.942Z,23.33
2023-04-05T21:35:48.052Z,22.27
2023-04-05T21:38:15.949Z,21.80
2023-04-05T21:40:44.724Z,21.52
2023-04-05T21:43:13.211Z,22.38
2023-04-05T21:45:40.410Z,21.35
2023-04-05T21:48:07.634Z,21.08
2023-04-05T21:50:34.655Z,22.23
2023-04-05T21:53:01.535Z,22.33
2023-04-05T21:55:28.532Z,21.42
2023-04-05T21:57:55.478Z,23.10
2023-04-05T22:00:22.447Z,22.92
2023-04-05T22:02:49.411Z,22.08
2023-04-05T22:05:29.604Z,21.33
2023-04-05T22:08:03.885Z,21.80
2023-04-05T22:10:30.927Z,21.02
2023-04-05T22:12:57.943Z,23.17
2023-04-05T22:15:24.895Z,23.20
2023-04-05T22:17:51.907Z,21.77
2023-04-05T22:20:18.841Z,22.65
2023-04-05T22:22:45.856Z,21.52
2023-04-05T22:25:12.834Z,21.25
2023-04-05T22:27:39.944Z,20.55
2023-04-05T22:30:08.225Z,21.55
2023-04-05T22:32:35.804Z,20.95
2023-04-05T22:35:04.635Z,20.75
2023-04-05T22:37:41.219Z,20.55
2023-04-05T22:40:09.193Z,21.23
2023-04-05T22:42:37.994Z,21.23
2023-04-05T22:45:07.610Z,20.95
2023-04-05T22:47:34.760Z,21.92
2023-04-05T22:50:01.920Z,22.35
2023-04-05T22:52:29.112Z,22.63
2023-04-05T22:54:56.254Z,21.10
2023-04-05T22:57:23.179Z,21.25
2023-04-05T22:59:50.506Z,22.30
2023-04-05T23:02:17.399Z,20.88
2023-04-05T23:04:44.389Z,22.75
2023-04-05T23:07:11.300Z,23.38
2023-04-05T23:09:38.266Z,22.30
2023-04-05T23:12:05.563Z,23.67
2023-04-05T23:14:32.539Z,23.63
2023-04-05T23:16:59.477Z,23.80
2023-04-05T23:19:27.052Z,24.15
2023-04-05T23:21:55.480Z,23.75
2023-04-05T23:24:22.481Z,23.88
2023-04-05T23:26:49.389Z,23.70
2023-04-05T23:29:18.540Z,23.13
2023-04-05T23:31:46.078Z,22.35
2023-04-05T23:34:14.813Z,22.48
2023-04-05T23:36:41.709Z,23.55
2023-04-05T23:39:08.950Z,23.58
2023-04-05T23:41:36.228Z,23.08
2023-04-05T23:44:03.170Z,24.98
2023-04-05T23:46:30.103Z,24.55
2023-04-05T23:48:57.115Z,24.60
2023-04-05T23:51:24.314Z,23.95
2023-04-05T23:53:51.627Z,23.58
2023-04-05T23:56:18.616Z,22.63
2023-04-05T23:58:45.747Z,23.92
